Time;durP1;ratioP1;P1;durP2;ratioP2;P2;SDS_P1;SDS_P2;PMS_P1;PMS_P2;Temp;Humidity;BMP_temperature;BMP_pressure;BME280_temperature;BME280_humidity;BME280_pressure;Samples;Min_cycle;Max_cycle;Signal;HPM_P1;HPM_P2
2023/11/20 00:00:29;;;;;;;;;4.25;2.75;;;;;13.99;81.24;101268.38;4996635;28;75751;-65
2023/11/20 00:02:54;;;;;;;;;6.00;1.25;;;;;14.02;81.04;101272.78;4997807;28;45458;-65
2023/11/20 00:05:19;;;;;;;;;4.00;2.25;;;;;13.94;81.15;101248.91;4997658;28;45558;-65
2023/11/20 00:07:46;;;;;;;;;3.75;2.25;;;;;13.96;81.14;101240.81;4993968;28;45475;-65
2023/11/20 00:10:12;;;;;;;;;5.50;3.50;;;;;13.99;81.16;101252.28;4996258;28;47066;-65
2023/11/20 00:12:38;;;;;;;;;5.75;2.00;;;;;13.96;81.30;101247.03;4997196;28;45652;-65
2023/11/20 00:15:04;;;;;;;;;2.00;1.50;;;;;14.00;81.14;101256.72;4997616;28;45320;-65
2023/11/20 00:17:29;;;;;;;;;3.75;3.75;;;;;13.96;81.00;101246.16;4997786;28;45319;-65
2023/11/20 00:19:55;;;;;;;;;5.00;2.25;;;;;13.94;81.42;101250.72;4998668;28;46964;-65
2023/11/20 00:22:20;;;;;;;;;4.50;4.00;;;;;13.88;80.96;101249.13;5001195;28;45581;-65
2023/11/20 00:24:46;;;;;;;;;2.00;1.50;;;;;13.93;81.41;101254.34;5001050;28;45498;-65
2023/11/20 00:27:11;;;;;;;;;5.00;2.00;;;;;13.93;81.05;101249.81;4999287;28;72924;-65
2023/11/20 00:29:37;;;;;;;;;3.75;2.00;;;;;13.94;81.33;101256.09;5000859;28;45484;-65
2023/11/20 00:32:03;;;;;;;;;3.75;3.50;;;;;13.90;81.32;101255.34;4999883;28;45680;-65
2023/11/20 00:34:28;;;;;;;;;4.00;2.00;;;;;13.86;80.98;101251.00;5000739;28;45441;-65
2023/11/20 00:36:53;;;;;;;;;6.50;3.50;;;;;13.83;81.28;101254.69;4989548;28;50313;-65
2023/11/20 00:39:19;;;;;;;;;2.00;2.00;;;;;13.88;81.24;101259.88;5001983;28;45374;-65
2023/11/20 00:41:44;;;;;;;;;2.50;2.50;;;;;13.83;81.14;101253.78;5000556;28;45495;-65
2023/11/20 00:44:12;;;;;;;;;5.50;2.25;;;;;13.83;81.20;101253.78;4991877;28;45526;-66
2023/11/20 00:46:38;;;;;;;;;2.50;2.50;;;;;13.81;81.60;101258.34;4987887;28;45510;-65
2023/11/20 00:49:05;;;;;;;;;6.00;2.50;;;;;13.83;81.38;101253.78;4984683;28;45528;-65
2023/11/20 00:51:31;;;;;;;;;4.00;2.00;;;;;13.85;81.80;101258.19;4985792;28;45536;-65
2023/11/20 00:53:56;;;;;;;;;4.25;1.00;;;;;13.86;81.59;101257.25;4988353;28;46916;-65
2023/11/20 00:56:21;;;;;;;;;5.00;2.00;;;;;13.86;81.16;101253.69;4989715;28;45460;-65
2023/11/20 00:58:47;;;;;;;;;4.75;2.00;;;;;13.88;81.63;101251.81;4990837;28;69072;-65
2023/11/20 01:01:12;;;;;;;;;7.25;2.00;;;;;13.88;81.31;101243.75;5001782;28;45694;-65
2023/11/20 01:03:38;;;;;;;;;4.00;3.00;;;;;13.85;81.17;101243.91;5000758;28;60598;-65
2023/11/20 01:06:04;;;;;;;;;3.75;1.00;;;;;13.86;81.37;101251.00;5000889;28;45299;-65
2023/11/20 01:08:30;;;;;;;;;4.00;2.25;;;;;13.86;81.49;101251.00;4992069;28;45691;-65
2023/11/20 01:10:56;;;;;;;;;4.00;3.00;;;;;13.84;81.39;101247.50;4994928;28;45475;-65
2023/11/20 01:13:21;;;;;;;;;3.75;1.75;;;;;13.87;81.55;101258.13;5000913;28;46626;-65
2023/11/20 01:15:46;;;;;;;;;6.00;1.75;;;;;13.81;81.15;101244.94;4998310;28;67264;-65
2023/11/20 01:18:12;;;;;;;;;3.00;2.50;;;;;13.78;81.53;101251.31;4999589;28;45431;-65
2023/11/20 01:20:37;;;;;;;;;2.00;2.00;;;;;13.80;81.44;101245.84;5000963;28;56405;-65
2023/11/20 01:23:03;;;;;;;;;2.00;2.00;;;;;13.83;81.86;101259.16;5001412;28;45481;-65
2023/11/20 01:25:31;;;;;;;;;5.00;3.00;;;;;13.83;81.69;101264.53;5000634;28;45813;-65
2023/11/20 01:27:57;;;;;;;;;7.50;3.00;;;;;13.79;81.42;101257.53;4997013;28;45482;-65
2023/11/20 01:30:22;;;;;;;;;3.25;2.75;;;;;13.78;81.77;101242.38;4990995;28;45569;-65
2023/11/20 01:32:47;;;;;;;;;3.00;2.00;;;;;13.78;81.64;101240.59;5000315;28;67435;-65
2023/11/20 01:35:13;;;;;;;;;4.25;3.00;;;;;13.80;81.78;101251.22;4995561;28;45515;-65
2023/11/20 01:37:38;;;;;;;;;5.00;3.00;;;;;13.69;81.75;101238.22;4986212;28;46140;-65
2023/11/20 01:40:04;;;;;;;;;2.00;1.00;;;;;13.73;81.82;101258.63;5000086;28;45320;-65
2023/11/20 01:42:29;;;;;;;;;2.00;2.00;;;;;13.74;81.78;101264.91;5001087;28;45527;-65
2023/11/20 01:44:55;;;;;;;;;2.50;2.50;;;;;13.75;82.03;101262.16;4993791;28;45810;-65
2023/11/20 01:47:22;;;;;;;;;4.00;2.00;;;;;13.74;81.39;101246.13;4998522;28;45437;-65
2023/11/20 01:49:47;;;;;;;;;2.50;2.00;;;;;13.73;81.72;101247.91;4995986;28;45316;-65
2023/11/20 01:52:13;;;;;;;;;4.00;2.75;;;;;13.73;81.54;101247.03;4996590;28;45621;-65
2023/11/20 01:54:39;;;;;;;;;3.75;2.00;;;;;13.80;81.53;101248.53;4988310;28;45601;-65
2023/11/20 01:57:06;;;;;;;;;4.75;2.00;;;;;13.75;81.46;101250.53;4999011;28;45359;-65
2023/11/20 01:59:31;;;;;;;;;6.25;1.00;;;;;13.69;81.65;101240.91;4995348;28;45432;-65
2023/11/20 02:01:57;;;;;;;;;1.00;1.00;;;;;13.77;81.25;101254.91;4998909;28;50064;-65
2023/11/20 02:04:24;;;;;;;;;1.00;1.00;;;;;13.76;81.56;101246.94;4990593;28;45616;-65
2023/11/20 02:06:49;;;;;;;;;4.00;2.00;;;;;13.77;81.53;101246.00;4998405;28;46060;-65
2023/11/20 02:09:16;;;;;;;;;2.00;2.00;;;;;13.76;81.59;101245.09;4996617;28;45423;-65
2023/11/20 02:11:44;;;;;;;;;2.50;2.00;;;;;13.68;81.49;101223.06;4999961;28;45456;-65
2023/11/20 02:14:09;;;;;;;;;5.25;2.00;;;;;13.75;81.51;101239.78;5000535;28;45557;-65
2023/11/20 02:16:35;;;;;;;;;2.75;1.75;;;;;13.78;81.37;101248.63;4983140;28;46203;-65
2023/11/20 02:19:10;;;;;;;;;3.75;2.50;;;;;13.77;81.36;101244.19;4995613;28;72849;-65
2023/11/20 02:21:36;;;;;;;;;2.00;1.50;;;;;13.74;81.38;101236.25;4988260;28;45570;-65
2023/11/20 02:24:01;;;;;;;;;5.50;2.00;;;;;13.77;81.12;101236.13;4999322;28;73136;-65
2023/11/20 02:26:32;;;;;;;;;5.00;2.50;;;;;13.78;81.28;101237.00;4999309;28;45336;-65
2023/11/20 02:29:10;;;;;;;;;1.00;1.00;;;;;13.79;81.31;101236.94;4985307;28;45651;-65
2023/11/20 02:31:35;;;;;;;;;2.25;2.25;;;;;13.82;81.67;101233.28;4999362;28;45443;-65
2023/11/20 02:34:01;;;;;;;;;7.00;3.50;;;;;13.83;81.57;101219.81;4997669;28;67387;-65
2023/11/20 02:36:26;;;;;;;;;4.00;2.25;;;;;13.84;81.21;101223.34;4990708;28;45405;-65
2023/11/20 02:38:51;;;;;;;;;3.75;1.75;;;;;13.80;81.23;101219.03;4994806;28;45411;-65
2023/11/20 02:41:17;;;;;;;;;6.00;3.50;;;;;13.80;81.42;101232.44;4998643;28;45547;-65
2023/11/20 02:43:42;;;;;;;;;4.00;2.00;;;;;13.84;81.34;101237.66;4999227;28;64562;-65
2023/11/20 02:46:07;;;;;;;;;4.00;2.00;;;;;13.80;81.10;101230.66;4989482;28;74350;-65
2023/11/20 02:48:32;;;;;;;;;1.75;1.25;;;;;13.77;81.54;101225.41;4989893;28;55553;-65
2023/11/20 02:50:58;;;;;;;;;2.00;2.00;;;;;13.78;81.01;101221.81;4999321;28;60556;-65
2023/11/20 02:53:23;;;;;;;;;4.00;1.75;;;;;13.78;81.52;101218.22;4998631;28;45426;-65
2023/11/20 02:55:50;;;;;;;;;4.50;2.75;;;;;13.77;81.55;101221.84;4996664;28;74618;-65
2023/11/20 02:58:15;;;;;;;;;3.75;2.00;;;;;13.78;81.54;101212.84;4994220;28;45332;-65
2023/11/20 03:00:41;;;;;;;;;4.00;1.00;;;;;13.78;81.48;101207.50;4989819;28;45344;-65
2023/11/20 03:03:06;;;;;;;;;3.00;2.00;;;;;13.81;81.54;101199.31;4992159;28;55637;-65
2023/11/20 03:05:34;;;;;;;;;3.00;1.00;;;;;13.84;81.09;101209.94;4996902;28;46100;-65
2023/11/20 03:07:59;;;;;;;;;1.00;1.00;;;;;13.84;81.26;101208.13;4990546;28;45508;-65
2023/11/20 03:10:26;;;;;;;;;2.00;1.00;;;;;13.85;81.38;101209.88;4988142;28;69220;-65
2023/11/20 03:12:51;;;;;;;;;1.00;0.50;;;;;13.81;81.27;101202.00;4996694;28;45347;-65
2023/11/20 03:15:16;;;;;;;;;4.00;2.00;;;;;13.79;81.06;101188.66;4999602;28;45579;-65
2023/11/20 03:17:42;;;;;;;;;2.00;1.00;;;;;13.83;81.32;101200.13;4992490;28;45735;-65
2023/11/20 03:20:08;;;;;;;;;2.00;1.00;;;;;13.89;81.59;101200.78;4990189;28;45410;-65
2023/11/20 03:22:33;;;;;;;;;3.00;1.00;;;;;13.88;80.98;101196.34;4999408;28;45608;-65
2023/11/20 03:24:59;;;;;;;;;1.25;1.25;;;;;13.90;81.32;101193.63;4995004;28;48385;-65
2023/11/20 03:27:25;;;;;;;;;3.00;2.00;;;;;13.78;81.21;101181.56;4979866;28;45333;-65
2023/11/20 03:29:50;;;;;;;;;4.00;2.00;;;;;13.82;81.08;101185.84;4992788;28;45471;-65
2023/11/20 03:32:15;;;;;;;;;6.50;1.50;;;;;13.77;81.31;101177.09;4995691;28;73316;-65
2023/11/20 03:34:41;;;;;;;;;3.00;2.00;;;;;13.80;81.48;101193.09;4997523;28;48793;-65
2023/11/20 03:37:06;;;;;;;;;2.25;1.50;;;;;13.80;81.29;101189.50;4985342;28;45561;-65
2023/11/20 03:39:31;;;;;;;;;1.00;1.00;;;;;13.78;81.38;101191.38;4994691;28;63303;-65
2023/11/20 03:41:57;;;;;;;;;3.50;1.00;;;;;13.81;81.54;101205.56;4999180;28;45296;-65
2023/11/20 03:44:22;;;;;;;;;3.25;1.00;;;;;13.80;81.43;101186.84;4994367;28;57654;-65
2023/11/20 03:46:47;;;;;;;;;2.25;2.00;;;;;13.79;81.58;101188.66;4997679;28;73286;-65
2023/11/20 03:49:13;;;;;;;;;3.00;1.25;;;;;13.75;81.17;101167.34;4996437;28;68222;-65
2023/11/20 03:51:38;;;;;;;;;3.00;2.00;;;;;13.85;81.25;101190.25;4999019;28;45351;-65
2023/11/20 03:54:03;;;;;;;;;1.50;1.25;;;;;13.80;81.50;101194.88;4990177;28;75525;-65
2023/11/20 03:56:28;;;;;;;;;2.00;2.00;;;;;13.80;81.61;101197.56;4987223;28;45434;-65
2023/11/20 03:58:54;;;;;;;;;1.75;1.75;;;;;13.77;81.86;101206.63;4998224;28;59265;-65
2023/11/20 04:01:19;;;;;;;;;2.00;2.00;;;;;13.79;81.71;101207.44;4993011;28;73543;-65
2023/11/20 04:03:44;;;;;;;;;2.75;1.00;;;;;13.82;81.54;101207.31;4989085;28;45330;-65
2023/11/20 04:06:10;;;;;;;;;0.00;0.00;;;;;13.82;81.74;101198.41;4996124;28;45451;-65
2023/11/20 04:08:36;;;;;;;;;2.00;1.00;;;;;13.86;81.54;101205.38;4999024;28;45429;-65
2023/11/20 04:11:04;;;;;;;;;3.75;1.00;;;;;13.87;81.39;101202.66;4997473;28;45493;-65
2023/11/20 04:13:30;;;;;;;;;1.00;1.00;;;;;13.86;81.65;101200.88;4993632;28;45965;-65
2023/11/20 04:15:56;;;;;;;;;3.00;1.75;;;;;13.93;81.34;101212.25;4989817;28;45905;-65
2023/11/20 04:18:21;;;;;;;;;2.75;2.00;;;;;13.94;81.22;101210.47;4986897;28;45597;-65
2023/11/20 04:20:46;;;;;;;;;1.25;1.00;;;;;13.90;81.29;101204.34;4993219;28;45363;-65
2023/11/20 04:23:12;;;;;;;;;2.25;1.00;;;;;13.87;81.10;101212.50;4989665;28;69223;-65
2023/11/20 04:25:37;;;;;;;;;1.50;1.50;;;;;13.85;80.89;101207.22;4994923;28;45369;-65
2023/11/20 04:28:02;;;;;;;;;3.50;3.00;;;;;13.89;81.40;101203.44;4997800;28;68081;-65
2023/11/20 04:30:28;;;;;;;;;1.00;0.00;;;;;13.87;81.36;101201.78;4997753;28;45779;-65
2023/11/20 04:32:53;;;;;;;;;1.50;0.50;;;;;13.82;81.36;101190.34;4990700;28;45481;-65
2023/11/20 04:35:18;;;;;;;;;1.00;1.00;;;;;13.84;81.21;101194.72;4997438;28;45388;-65
2023/11/20 04:37:44;;;;;;;;;3.00;1.00;;;;;13.84;81.48;101197.41;4997010;28;45582;-65
2023/11/20 04:40:10;;;;;;;;;3.75;2.00;;;;;13.84;81.22;101192.03;4997225;28;45945;-65
2023/11/20 04:42:35;;;;;;;;;0.75;0.00;;;;;13.84;81.14;101194.72;4998480;28;45335;-65
2023/11/20 04:45:00;;;;;;;;;3.75;1.25;;;;;13.83;81.33;101182.25;4993599;28;65909;-65
2023/11/20 04:47:26;;;;;;;;;4.00;2.00;;;;;13.85;81.38;101182.19;4998373;28;45261;-65
2023/11/20 04:49:51;;;;;;;;;0.75;0.75;;;;;13.78;81.30;101178.88;5004757;28;51202;-65
2023/11/20 04:52:17;;;;;;;;;3.00;2.00;;;;;13.84;81.14;101181.28;4995925;28;74472;-65
2023/11/20 04:54:42;;;;;;;;;1.25;1.00;;;;;13.87;81.69;101183.00;4996216;28;45404;-65
2023/11/20 04:57:09;;;;;;;;;2.00;1.00;;;;;13.84;81.31;101164.31;4997934;28;45487;-65
2023/11/20 04:59:35;;;;;;;;;3.00;2.00;;;;;13.85;81.41;101163.41;4987050;28;45491;-65
2023/11/20 05:02:00;;;;;;;;;3.50;1.00;;;;;13.85;81.37;101166.09;4995733;28;46428;-65
2023/11/20 05:04:25;;;;;;;;;2.50;1.75;;;;;13.86;81.40;101165.13;4992094;28;45489;-65
2023/11/20 05:06:51;;;;;;;;;6.00;3.00;;;;;13.76;81.51;101158.38;5000133;28;45395;-65
2023/11/20 05:09:17;;;;;;;;;3.50;1.75;;;;;13.78;81.33;101153.81;5015332;28;45627;-65
2023/11/20 05:11:45;;;;;;;;;1.50;1.25;;;;;13.79;81.45;101161.81;4994014;28;45442;-65
2023/11/20 05:14:10;;;;;;;;;2.00;2.00;;;;;13.76;81.56;101140.47;4994179;28;45758;-65
2023/11/20 05:16:35;;;;;;;;;2.00;1.00;;;;;13.79;81.47;101139.50;5001145;28;45355;-65
2023/11/20 05:19:02;;;;;;;;;2.00;1.00;;;;;13.78;81.56;101135.94;5007468;28;45658;-65
2023/11/20 05:21:27;;;;;;;;;4.50;1.25;;;;;13.77;81.39;101131.50;5001355;28;46049;-65
2023/11/20 05:23:53;;;;;;;;;2.25;1.00;;;;;13.77;81.64;101144.91;4991691;28;45403;-65
2023/11/20 05:26:18;;;;;;;;;3.25;3.00;;;;;13.78;81.38;101130.56;4988483;28;46300;-65
2023/11/20 05:28:44;;;;;;;;;3.00;1.25;;;;;13.83;81.38;101138.41;5000741;28;45398;-65
2023/11/20 05:31:09;;;;;;;;;2.00;1.50;;;;;13.77;81.41;101139.53;5000174;28;45528;-65
2023/11/20 05:33:35;;;;;;;;;4.25;1.00;;;;;13.80;81.50;101134.06;4991369;28;67795;-65
2023/11/20 05:36:01;;;;;;;;;3.00;2.00;;;;;13.76;81.56;101140.47;4991117;28;45525;-65
2023/11/20 05:38:26;;;;;;;;;3.00;2.00;;;;;13.68;81.54;101122.00;4995456;28;70087;-65
2023/11/20 05:40:51;;;;;;;;;3.00;1.50;;;;;13.69;81.35;101122.88;4999832;28;75249;-65
2023/11/20 05:43:17;;;;;;;;;3.50;3.00;;;;;13.66;81.82;101128.34;5001037;28;45379;-65
2023/11/20 05:45:42;;;;;;;;;2.25;2.25;;;;;13.69;81.94;101126.41;4992304;28;45683;-65
2023/11/20 05:48:08;;;;;;;;;3.75;2.00;;;;;13.67;81.96;101122.94;5006606;28;70485;-65
2023/11/20 05:50:33;;;;;;;;;1.75;1.00;;;;;13.69;81.63;101117.50;4989053;28;46583;-65
2023/11/20 05:52:58;;;;;;;;;5.00;3.75;;;;;13.64;81.68;101114.13;4999649;28;45342;-65
2023/11/20 05:55:27;;;;;;;;;5.00;4.25;;;;;13.65;81.90;101122.13;4999078;28;45501;-65
2023/11/20 05:57:52;;;;;;;;;2.25;1.50;;;;;13.58;81.77;101117.03;5000681;28;45371;-65
2023/11/20 06:00:18;;;;;;;;;6.50;3.00;;;;;13.62;81.72;101122.25;4998516;28;57194;-65
2023/11/20 06:02:45;;;;;;;;;4.75;2.00;;;;;13.60;81.38;101123.22;4994960;28;45442;-65
2023/11/20 06:05:10;;;;;;;;;2.75;1.00;;;;;13.62;81.88;101127.59;4986657;28;45569;-65
2023/11/20 06:07:35;;;;;;;;;1.75;1.50;;;;;13.61;82.05;101125.84;4994215;28;45575;-65
2023/11/20 06:10:02;;;;;;;;;7.25;2.00;;;;;13.61;82.02;101123.16;4995153;28;45455;-65
2023/11/20 06:12:27;;;;;;;;;2.25;2.25;;;;;13.61;81.98;101116.94;4992550;28;45489;-65
2023/11/20 06:14:53;;;;;;;;;5.00;3.00;;;;;13.62;82.17;101119.56;4997431;28;45346;-65
2023/11/20 06:17:18;;;;;;;;;7.25;4.00;;;;;13.60;81.96;101109.81;4997879;28;45481;-65
2023/11/20 06:19:44;;;;;;;;;3.25;3.00;;;;;13.57;81.99;101104.59;5000181;28;46295;-65
2023/11/20 06:22:09;;;;;;;;;3.50;2.25;;;;;13.61;82.04;101117.78;4987391;28;45328;-65
2023/11/20 06:24:35;;;;;;;;;5.50;2.00;;;;;13.60;81.82;101117.84;4986127;28;45533;-65
2023/11/20 06:27:00;;;;;;;;;1.50;1.25;;;;;13.52;81.68;101115.50;5000026;28;45534;-65
2023/11/20 06:29:25;;;;;;;;;3.50;2.00;;;;;13.60;81.96;101128.59;4993671;28;69707;-65
2023/11/20 06:31:51;;;;;;;;;3.50;2.00;;;;;13.58;81.93;101126.00;4995683;28;73249;-65
2023/11/20 06:34:16;;;;;;;;;1.00;1.00;;;;;13.63;81.82;101131.16;5000413;28;45284;-65
2023/11/20 06:36:41;;;;;;;;;4.00;1.25;;;;;13.64;81.88;101127.53;4989210;28;45384;-65
2023/11/20 06:39:07;;;;;;;;;7.25;1.75;;;;;13.58;81.63;101120.63;4999441;28;69553;-65
2023/11/20 06:41:32;;;;;;;;;1.75;0.75;;;;;13.59;81.49;101116.13;4996065;28;45391;-65
2023/11/20 06:43:57;;;;;;;;;2.25;1.00;;;;;13.65;82.18;101126.63;4999529;28;45594;-65
2023/11/20 06:46:23;;;;;;;;;2.00;2.00;;;;;13.66;81.86;101120.31;4997954;28;45654;-65
2023/11/20 06:48:48;;;;;;;;;5.75;2.75;;;;;13.67;82.20;101120.25;5002956;28;72713;-65
2023/11/20 06:51:15;;;;;;;;;3.25;2.00;;;;;13.67;81.81;101130.97;4996371;28;45293;-65
2023/11/20 06:53:41;;;;;;;;;2.25;2.00;;;;;13.65;81.63;101119.44;4996834;28;45422;-67
2023/11/20 06:56:15;;;;;;;;;3.00;2.00;;;;;13.62;81.89;101130.28;4991651;28;45552;-67
2023/11/20 06:58:40;;;;;;;;;2.00;0.75;;;;;13.66;81.67;101126.53;4998720;28;46497;-68
2023/11/20 07:01:05;;;;;;;;;4.00;1.00;;;;;13.63;81.62;101112.38;4993210;28;46410;-66
2023/11/20 07:03:31;;;;;;;;;3.50;2.00;;;;;13.67;81.56;101122.06;4992335;28;45361;-66
2023/11/20 07:05:56;;;;;;;;;3.00;2.00;;;;;13.65;81.71;101121.25;4998264;28;45391;-65
2023/11/20 07:08:25;;;;;;;;;1.00;1.00;;;;;13.64;81.95;101114.13;4998250;28;45396;-66
2023/11/20 07:10:50;;;;;;;;;2.00;2.00;;;;;13.67;81.80;101120.25;4991917;28;45317;-65
2023/11/20 07:13:15;;;;;;;;;4.50;2.00;;;;;13.68;81.70;101116.66;4986887;28;67634;-65
2023/11/20 07:15:40;;;;;;;;;3.00;1.00;;;;;13.67;81.25;101122.06;4995930;28;64444;-65
2023/11/20 07:18:08;;;;;;;;;0.50;0.50;;;;;13.63;81.50;101125.78;4983093;28;75636;-65
2023/11/20 07:20:34;;;;;;;;;3.25;1.25;;;;;13.63;81.63;101124.00;4995920;28;45339;-65
2023/11/20 07:23:01;;;;;;;;;4.50;1.00;;;;;13.65;81.84;101119.44;4998506;28;45428;-65
2023/11/20 07:25:33;;;;;;;;;2.25;1.00;;;;;13.63;81.40;101121.31;4998844;28;45399;-65
2023/11/20 07:27:58;;;;;;;;;3.25;2.00;;;;;13.64;81.57;101114.13;4985799;28;47105;-65
2023/11/20 07:30:23;;;;;;;;;2.75;2.75;;;;;13.63;81.04;101110.59;4993626;28;45480;-65
2023/11/20 07:32:48;;;;;;;;;1.50;1.50;;;;;13.59;81.15;101105.41;4995363;28;67874;-65
2023/11/20 07:35:14;;;;;;;;;4.75;2.00;;;;;13.60;81.22;101101.75;4986205;28;73176;-65
2023/11/20 07:37:41;;;;;;;;;3.75;2.00;;;;;13.59;81.14;101095.53;4995647;28;46300;-65
2023/11/20 07:40:10;;;;;;;;;2.00;1.50;;;;;13.57;81.44;101096.53;4995767;28;45340;-65
2023/11/20 07:42:36;;;;;;;;;5.00;3.00;;;;;13.53;81.45;101096.66;4985598;28;45419;-65
2023/11/20 07:45:02;;;;;;;;;6.50;4.00;;;;;13.54;81.24;101097.53;4995624;28;45341;-65
2023/11/20 07:47:27;;;;;;;;;3.50;2.00;;;;;13.57;81.53;101102.78;4988162;28;45661;-65
2023/11/20 07:49:52;;;;;;;;;1.75;1.75;;;;;13.57;81.22;101096.53;4986619;28;72169;-65
2023/11/20 07:52:18;;;;;;;;;5.00;1.00;;;;;13.61;81.37;101100.84;4996086;28;45447;-65
2023/11/20 07:54:43;;;;;;;;;4.50;2.00;;;;;13.62;81.17;101111.50;4983920;28;71577;-65
2023/11/20 07:57:11;;;;;;;;;2.00;2.00;;;;;13.56;81.25;101101.00;4982926;28;46947;-64
2023/11/20 07:59:37;;;;;;;;;3.00;2.00;;;;;13.61;80.96;101095.47;4984875;28;45376;-63
2023/11/20 08:02:03;;;;;;;;;1.00;1.00;;;;;13.54;80.56;101094.84;4995051;28;45418;-65
2023/11/20 08:04:28;;;;;;;;;3.00;2.00;;;;;13.57;81.09;101107.28;4995279;28;45414;-66
2023/11/20 08:06:53;;;;;;;;;1.50;1.00;;;;;13.54;81.02;101105.56;4998863;28;46113;-64
2023/11/20 08:09:18;;;;;;;;;3.75;2.75;;;;;13.54;81.12;101102.88;4986557;28;59159;-64
2023/11/20 08:11:44;;;;;;;;;2.50;1.00;;;;;13.57;81.19;101104.59;4991062;28;45320;-64
2023/11/20 08:14:09;;;;;;;;;3.75;2.00;;;;;13.56;81.22;101117.09;4998578;28;45310;-64
2023/11/20 08:16:34;;;;;;;;;2.00;1.00;;;;;13.57;81.01;101112.63;4998738;28;45416;-64
2023/11/20 08:19:02;;;;;;;;;2.00;1.25;;;;;13.56;81.03;101109.06;4987131;28;72264;-64
2023/11/20 08:21:27;;;;;;;;;3.25;1.00;;;;;13.47;80.95;101090.66;4993810;28;45602;-64
2023/11/20 08:23:53;;;;;;;;;6.25;2.00;;;;;13.56;80.91;101095.66;4994103;28;45616;-64
2023/11/20 08:26:18;;;;;;;;;4.75;3.00;;;;;13.47;80.59;101072.75;4991038;28;45998;-64
2023/11/20 08:28:43;;;;;;;;;2.00;1.00;;;;;13.60;80.53;101088.34;4997947;28;51546;-63
2023/11/20 08:31:09;;;;;;;;;2.50;2.00;;;;;13.60;80.78;101096.41;4998495;28;45452;-64
2023/11/20 08:33:35;;;;;;;;;1.50;0.75;;;;;13.53;80.25;101090.41;4997361;28;45490;-64
2023/11/20 08:36:00;;;;;;;;;4.00;1.00;;;;;13.52;80.37;101092.22;4990341;28;46076;-62
2023/11/20 08:38:26;;;;;;;;;4.00;3.00;;;;;13.51;80.73;101092.28;4995193;28;45419;-66
2023/11/20 08:40:51;;;;;;;;;3.00;2.00;;;;;13.52;80.80;101092.22;5000793;28;45620;-65
2023/11/20 08:43:16;;;;;;;;;3.50;0.75;;;;;13.58;80.49;101090.22;5003049;28;45390;-65
2023/11/20 08:45:42;;;;;;;;;1.75;1.75;;;;;13.57;80.41;101092.03;5000669;28;74420;-64
2023/11/20 08:48:08;;;;;;;;;2.25;1.00;;;;;13.55;80.29;101088.56;5001722;28;45367;-66
2023/11/20 08:50:41;;;;;;;;;3.00;1.00;;;;;13.53;80.66;101085.94;5000813;28;45551;-63
2023/11/20 08:53:20;;;;;;;;;;;;;;;;;;;;;
2023/11/20 08:56:11;;;;;;;;;2.00;2.00;;;;;13.48;80.50;101073.63;5000564;28;75561;-64
2023/11/20 08:58:39;;;;;;;;;3.00;2.00;;;;;13.40;80.13;101054.25;4997866;28;45727;-64
2023/11/20 09:01:17;;;;;;;;;;;;;;;;;;;;;
2023/11/20 09:03:45;;;;;;;;;5.00;2.50;;;;;13.39;80.11;101036.44;4994945;28;71518;-64
2023/11/20 09:06:52;;;;;;;;;;;;;;;;;;;;;
2023/11/20 09:09:35;;;;;;;;;;;;;;;;;;;;;
2023/11/20 09:12:36;;;;;;;;;;;;;;;;;;;;;
2023/11/20 09:15:30;;;;;;;;;3.00;2.00;;;;;13.58;79.75;101036.59;4999364;28;72375;-63
2023/11/20 09:18:12;;;;;;;;;;;;;;;;;;;;;
2023/11/20 09:20:48;;;;;;;;;;;;;;;;;;;;;
2023/11/20 09:23:21;;;;;;;;;2.00;2.00;;;;;13.73;79.16;101054.72;4999011;28;68676;-63
2023/11/20 09:26:22;;;;;;;;;;;;;;;;;;;;;
2023/11/20 09:29:17;;;;;;;;;;;;;;;;;;;;;
2023/11/20 09:31:47;;;;;;;;;1.00;1.00;;;;;13.59;79.31;101008.84;4993225;28;72747;-63
2023/11/20 09:34:23;;;;;;;;;;;;;;;;;;;;;
2023/11/20 09:36:50;;;;;;;;;3.00;1.50;;;;;13.70;78.83;101012.81;5000228;28;72869;-62
2023/11/20 09:39:29;;;;;;;;;3.50;1.00;;;;;13.58;79.05;100985.63;5000810;28;46555;-65
2023/11/20 09:42:31;;;;;;;;;;;;;;;;;;;;;
2023/11/20 09:45:42;;;;;;;;;2.00;1.00;;;;;13.80;79.03;101015.09;4998881;28;68391;-63
2023/11/20 09:48:15;;;;;;;;;3.00;1.00;;;;;13.70;79.01;100987.81;4995598;28;45413;-64
2023/11/20 09:50:50;;;;;;;;;2.00;1.00;;;;;13.73;78.98;100997.53;4994970;28;46472;-64
2023/11/20 09:53:30;;;;;;;;;1.00;0.25;;;;;13.86;78.94;101021.09;4992796;28;45467;-63
2023/11/20 09:55:58;;;;;;;;;3.00;1.00;;;;;13.92;77.98;101025.34;4986971;28;45698;-63
2023/11/20 09:58:28;;;;;;;;;2.25;1.50;;;;;13.90;78.23;101025.41;5002177;28;45422;-64
2023/11/20 10:01:45;;;;;;;;;;;;;;;;;;;;;
2023/11/20 10:04:36;;;;;;;;;;;;;;;;;;;;;
2023/11/20 10:07:12;;;;;;;;;2.50;1.00;;;;;13.94;78.71;101002.00;4991536;28;67727;-64
2023/11/20 10:13:40;;;;;;;;;2.50;1.50;;;;;14.01;77.51;101013.34;4987143;28;47277;-64
2023/11/20 10:16:36;;;;;;;;;3.00;2.00;;;;;13.83;77.19;100967.59;4988502;28;45733;-64
2023/11/20 10:19:35;;;;;;;;;3.50;2.25;;;;;13.82;77.30;100973.00;5016484;28;45536;-64
2023/11/20 10:22:22;;;;;;;;;;;;;;;;;;;;;
2023/11/20 10:24:58;;;;;;;;;1.50;1.00;;;;;13.92;76.96;100960.09;4998168;28;76149;-64
2023/11/20 10:27:41;;;;;;;;;;;;;;;;;;;;;
2023/11/20 10:30:50;;;;;;;;;3.25;2.75;;;;;14.09;76.71;100961.06;4996621;28;67129;-64
2023/11/20 10:33:54;;;;;;;;;;;;;;;;;;;;;
2023/11/20 10:36:22;;;;;;;;;0.00;0.00;;;;;14.18;76.50;100954.47;4980997;28;74796;-64
2023/11/20 10:38:59;;;;;;;;;;;;;;;;;;;;;
2023/11/20 10:41:42;;;;;;;;;1.00;0.50;;;;;14.24;76.11;100959.53;4992288;28;67716;-64
2023/11/20 10:44:21;;;;;;;;;2.00;1.00;;;;;14.13;75.77;100939.47;4999790;28;45913;-64
2023/11/20 10:46:56;;;;;;;;;;;;;;;;;;;;;
2023/11/20 10:49:39;;;;;;;;;0.50;0.50;;;;;13.84;75.94;100886.13;4989914;28;72893;-64
2023/11/20 10:52:25;;;;;;;;;0.50;0.25;;;;;13.99;75.52;100899.81;4994781;28;45404;-64
2023/11/20 10:55:02;;;;;;;;;1.50;1.25;;;;;14.11;75.77;100911.81;4992912;28;45435;-64
2023/11/20 10:57:46;;;;;;;;;1.25;1.00;;;;;14.05;75.16;100891.50;4995352;28;46564;-64
2023/11/20 11:00:44;;;;;;;;;1.00;1.00;;;;;14.16;75.20;100904.44;5009926;28;45912;-64
2023/11/20 11:03:26;;;;;;;;;1.00;0.50;;;;;14.07;75.41;100882.44;4998503;28;45661;-64
2023/11/20 11:06:36;;;;;;;;;2.75;2.75;;;;;14.26;74.73;100905.75;4995872;28;45346;-65
2023/11/20 11:09:20;;;;;;;;;2.50;2.00;;;;;14.06;74.67;100861.03;4998487;28;46390;-64
2023/11/20 11:12:06;;;;;;;;;2.75;1.00;;;;;14.25;74.89;100882.56;4988428;28;45541;-64
2023/11/20 11:14:31;;;;;;;;;2.75;0.75;;;;;14.27;74.68;100889.59;5013615;28;45868;-64
2023/11/20 11:17:09;;;;;;;;;2.00;2.00;;;;;14.03;74.77;100837.00;4983654;28;45783;-64
2023/11/20 11:19:54;;;;;;;;;1.00;1.00;;;;;14.15;74.58;100840.94;4987087;28;46631;-64
2023/11/20 11:22:40;;;;;;;;;2.25;1.50;;;;;14.29;74.47;100854.63;4995370;28;45412;-63
2023/11/20 11:25:10;;;;;;;;;1.25;0.75;;;;;14.15;73.98;100827.53;5012825;28;45524;-63
2023/11/20 11:27:50;;;;;;;;;2.00;2.00;;;;;14.10;74.14;100825.06;4997986;28;45519;-63
2023/11/20 11:30:21;;;;;;;;;1.00;1.00;;;;;14.37;74.08;100849.75;4997652;28;45377;-63
2023/11/20 11:33:04;;;;;;;;;3.00;1.50;;;;;14.23;73.67;100828.94;4990406;28;45602;-63
2023/11/20 11:36:02;;;;;;;;;2.25;2.00;;;;;14.19;73.26;100821.09;4994692;28;45463;-63
2023/11/20 11:39:01;;;;;;;;;4.00;1.00;;;;;14.34;73.22;100841.84;4995703;28;46355;-63
2023/11/20 11:41:59;;;;;;;;;1.25;1.25;;;;;14.31;73.15;100828.56;4972001;28;47604;-64
2023/11/20 11:45:11;;;;;;;;;;;;;;;;;;;;;
2023/11/20 11:48:03;;;;;;;;;3.50;1.00;;;;;14.29;73.48;100822.41;4992719;28;69091;-63
2023/11/20 11:50:38;;;;;;;;;;;;;;;;;;;;;
2023/11/20 11:53:14;;;;;;;;;;;;;;;;;;;;;
2023/11/20 11:55:45;;;;;;;;;2.25;2.00;;;;;14.02;72.96;100749.41;4985678;28;72078;-63
2023/11/20 11:58:29;;;;;;;;;;;;;;;;;;;;;
2023/11/20 12:01:47;;;;;;;;;;;;;;;;;;;;;
2023/11/20 12:04:59;;;;;;;;;;;;;;;;;;;;;
2023/11/20 12:07:47;;;;;;;;;;;;;;;;;;;;;
2023/11/20 12:10:13;;;;;;;;;1.00;1.00;;;;;14.35;73.18;100784.53;4994798;28;68989;-62
2023/11/20 12:12:58;;;;;;;;;2.00;1.00;;;;;14.41;72.88;100780.66;4991214;28;46138;-63
2023/11/20 12:15:37;;;;;;;;;2.00;1.00;;;;;14.43;73.47;100779.66;4995264;28;46453;-62